createdAt,value
2022-08-28T00:01:45.693Z,14.66
2022-08-28T00:04:15.546Z,14.64
2022-08-28T00:06:45.394Z,14.58
2022-08-28T00:09:16.789Z,14.54
2022-08-28T00:11:47.468Z,14.57
2022-08-28T00:14:19.411Z,14.58
2022-08-28T00:16:49.497Z,14.61
2022-08-28T00:19:20.486Z,14.60
2022-08-28T00:21:50.577Z,14.60
2022-08-28T00:24:22.212Z,14.55
2022-08-28T00:27:09.354Z,14.54
2022-08-28T00:29:39.473Z,14.54
2022-08-28T00:32:10.017Z,14.54
2022-08-28T00:34:40.409Z,14.48
2022-08-28T00:37:10.722Z,14.43
2022-08-28T00:39:42.153Z,14.46
2022-08-28T00:42:12.234Z,14.44
2022-08-28T00:44:42.477Z,14.45
2022-08-28T00:47:12.309Z,14.45
2022-08-28T00:52:29.477Z,14.43
2022-08-28T00:55:04.345Z,14.49
2022-08-28T00:57:38.269Z,14.49
2022-08-28T01:00:13.349Z,14.46
2022-08-28T01:02:45.612Z,14.40
2022-08-28T01:05:17.265Z,14.29
2022-08-28T01:07:49.590Z,14.31
2022-08-28T01:10:22.977Z,14.29
2022-08-28T01:12:55.268Z,14.20
2022-08-28T01:15:30.000Z,14.05
2022-08-28T01:18:07.882Z,13.94
2022-08-28T01:20:44.218Z,13.86
2022-08-28T01:23:43.026Z,13.86
2022-08-28T01:26:13.152Z,13.90
2022-08-28T01:28:43.673Z,13.90
2022-08-28T01:31:15.186Z,13.90
2022-08-28T01:33:46.613Z,13.87
2022-08-28T01:36:18.494Z,13.96
2022-08-28T01:38:54.979Z,14.04
2022-08-28T01:41:24.996Z,14.08
2022-08-28T01:43:55.393Z,14.11
2022-08-28T01:46:25.478Z,14.13
2022-08-28T01:48:55.556Z,14.15
2022-08-28T01:51:25.575Z,14.19
2022-08-28T01:53:57.551Z,14.22
2022-08-28T01:56:27.753Z,14.26
2022-08-28T01:58:57.637Z,14.27
2022-08-28T02:01:27.577Z,14.31
2022-08-28T02:03:57.748Z,14.32
2022-08-28T02:06:27.628Z,14.24
2022-08-28T02:08:59.872Z,14.16
2022-08-28T02:11:30.999Z,14.19
2022-08-28T02:14:02.985Z,14.25
2022-08-28T02:16:32.892Z,14.23
2022-08-28T02:19:03.872Z,14.20
2022-08-28T02:21:33.818Z,14.19
2022-08-28T02:24:06.069Z,14.18
2022-08-28T02:26:36.359Z,14.14
2022-08-28T02:29:07.455Z,14.11
2022-08-28T02:31:37.406Z,14.08
2022-08-28T02:34:07.968Z,14.06
2022-08-28T02:36:41.354Z,14.05
2022-08-28T02:39:13.129Z,14.06
2022-08-28T02:41:43.655Z,14.06
2022-08-28T02:44:13.734Z,14.04
2022-08-28T02:46:43.696Z,14.03
2022-08-28T02:49:13.649Z,14.00
2022-08-28T02:51:43.779Z,14.01
2022-08-28T02:54:15.328Z,14.03
2022-08-28T02:56:48.436Z,14.02
2022-08-28T02:59:18.518Z,13.98
2022-08-28T03:01:48.813Z,13.98
2022-08-28T03:04:18.832Z,13.99
2022-08-28T03:06:50.186Z,14.00
2022-08-28T03:09:21.610Z,13.96
2022-08-28T03:11:54.293Z,13.93
2022-08-28T03:14:24.713Z,13.92
2022-08-28T03:16:54.861Z,13.91
2022-08-28T03:19:24.777Z,13.90
2022-08-28T03:21:56.149Z,13.90
2022-08-28T03:24:27.511Z,13.89
2022-08-28T03:26:57.474Z,13.86
2022-08-28T03:29:27.648Z,13.81
2022-08-28T03:31:57.702Z,13.83
2022-08-28T03:34:27.632Z,13.85
2022-08-28T03:36:57.394Z,13.81
2022-08-28T03:39:29.453Z,13.79
2022-08-28T03:41:59.393Z,13.79
2022-08-28T03:44:29.355Z,13.77
2022-08-28T03:46:59.171Z,13.78
2022-08-28T03:49:29.655Z,13.79
2022-08-28T03:53:31.055Z,13.83
2022-08-28T03:56:01.174Z,13.85
2022-08-28T03:58:31.258Z,13.87
2022-08-28T04:01:01.239Z,13.88
2022-08-28T04:03:31.119Z,13.88
2022-08-28T04:06:01.218Z,13.89
2022-08-28T04:08:32.854Z,13.91
2022-08-28T04:11:02.671Z,13.93
2022-08-28T04:13:33.253Z,13.94
2022-08-28T04:16:06.377Z,13.98
2022-08-28T04:18:37.149Z,14.00
2022-08-28T04:21:11.774Z,14.05
2022-08-28T04:23:45.515Z,14.10
2022-08-28T04:26:18.869Z,14.15
2022-08-28T04:28:49.715Z,14.21
2022-08-28T04:31:31.880Z,14.23
2022-08-28T04:34:05.231Z,14.32
2022-08-28T04:36:35.751Z,14.37
2022-08-28T04:39:11.373Z,14.41
2022-08-28T04:41:41.656Z,14.48
2022-08-28T04:44:11.516Z,14.61
2022-08-28T04:46:41.329Z,14.73
2022-08-28T04:49:12.459Z,14.84
2022-08-28T04:51:42.828Z,14.96
2022-08-28T04:54:14.257Z,15.12
2022-08-28T04:56:44.211Z,15.29
2022-08-28T04:59:14.798Z,15.42
2022-08-28T05:01:45.139Z,15.59
2022-08-28T05:04:15.654Z,15.74
2022-08-28T05:06:46.633Z,15.90
2022-08-28T05:09:20.694Z,16.06
2022-08-28T05:11:53.501Z,16.23
2022-08-28T05:14:23.462Z,16.40
2022-08-28T05:16:57.919Z,16.59
2022-08-28T05:19:29.793Z,16.76
2022-08-28T05:21:59.594Z,16.97
2022-08-28T05:24:31.009Z,17.19
2022-08-28T05:27:00.995Z,17.39
2022-08-28T05:29:31.058Z,17.58
2022-08-28T05:32:01.010Z,17.75
2022-08-28T05:34:31.689Z,17.94
2022-08-28T05:37:02.470Z,18.14
2022-08-28T05:39:33.883Z,18.37
2022-08-28T05:42:03.933Z,18.56
2022-08-28T05:44:33.804Z,18.77
2022-08-28T05:47:03.974Z,18.99
2022-08-28T05:49:33.835Z,19.21
2022-08-28T05:52:03.719Z,19.41
2022-08-28T05:54:35.055Z,19.60
2022-08-28T05:57:06.958Z,19.78
2022-08-28T05:59:36.796Z,19.99
2022-08-28T06:02:09.120Z,20.18
2022-08-28T06:04:40.814Z,20.38
2022-08-28T06:07:12.430Z,20.55
2022-08-28T06:09:44.919Z,20.75
2022-08-28T06:12:15.947Z,20.99
2022-08-28T06:14:46.249Z,21.22
2022-08-28T06:17:16.333Z,21.42
2022-08-28T06:19:53.510Z,21.59
2022-08-28T06:22:23.629Z,21.74
2022-08-28T06:24:55.149Z,21.91
2022-08-28T06:27:25.012Z,22.10
2022-08-28T06:29:55.021Z,22.29
2022-08-28T06:32:24.910Z,22.50
2022-08-28T06:34:54.949Z,22.74
2022-08-28T06:37:24.874Z,22.94
2022-08-28T06:39:56.233Z,23.11
2022-08-28T06:42:26.220Z,23.29
2022-08-28T06:44:56.010Z,23.48
2022-08-28T06:47:25.961Z,23.64
2022-08-28T06:53:30.843Z,23.96
2022-08-28T06:56:06.838Z,24.07
2022-08-28T06:58:38.253Z,24.18
2022-08-28T07:01:10.925Z,24.33
2022-08-28T07:03:45.708Z,24.47
2022-08-28T07:06:17.001Z,24.63
2022-08-28T07:08:48.477Z,24.78
2022-08-28T07:11:26.141Z,24.93
2022-08-28T07:13:57.673Z,25.02
2022-08-28T07:16:31.319Z,25.14
2022-08-28T07:19:04.175Z,25.31
2022-08-28T07:21:38.233Z,25.47
2022-08-28T07:24:12.374Z,25.57
2022-08-28T07:26:43.901Z,25.71
2022-08-28T07:29:14.824Z,25.79
2022-08-28T07:31:49.473Z,25.92
2022-08-28T07:34:22.514Z,26.02
2022-08-28T07:37:04.027Z,26.13
2022-08-28T07:39:36.434Z,26.22
2022-08-28T07:42:06.576Z,26.34
2022-08-28T07:44:50.755Z,26.48
2022-08-28T07:47:21.555Z,26.63
2022-08-28T07:49:53.849Z,26.75
2022-08-28T07:52:23.636Z,26.82
2022-08-28T07:54:55.266Z,26.90
2022-08-28T07:57:25.474Z,27.02
2022-08-28T07:59:55.633Z,27.11
2022-08-28T08:02:25.614Z,27.21
2022-08-28T08:04:55.645Z,27.25
2022-08-28T08:07:25.677Z,27.36
2022-08-28T08:09:57.752Z,27.42
2022-08-28T08:12:29.282Z,27.43
2022-08-28T08:14:59.572Z,27.33
2022-08-28T08:17:29.486Z,27.31
2022-08-28T08:19:59.495Z,27.41
2022-08-28T08:22:29.578Z,27.37
2022-08-28T08:25:00.972Z,27.40
2022-08-28T08:27:30.940Z,27.57
2022-08-28T08:30:01.341Z,27.82
2022-08-28T08:32:31.334Z,27.97
2022-08-28T08:35:01.336Z,27.99
2022-08-28T08:37:31.371Z,28.05
2022-08-28T08:40:07.610Z,28.20
2022-08-28T08:42:40.493Z,28.22
2022-08-28T08:45:17.217Z,28.19
2022-08-28T08:47:52.482Z,28.25
2022-08-28T08:50:27.062Z,28.26
2022-08-28T08:53:20.881Z,28.40
2022-08-28T08:55:54.256Z,28.49
2022-08-28T08:58:31.687Z,28.56
2022-08-28T09:01:09.952Z,28.63
2022-08-28T09:03:55.434Z,28.67
2022-08-28T09:06:34.838Z,28.76
2022-08-28T09:09:09.452Z,28.85
2022-08-28T09:11:57.232Z,28.94
2022-08-28T09:14:39.214Z,29.02
2022-08-28T09:17:10.236Z,29.13
2022-08-28T09:19:42.416Z,29.31
2022-08-28T09:22:12.419Z,29.34
2022-08-28T09:24:43.988Z,29.39
2022-08-28T09:27:27.812Z,29.41
2022-08-28T09:30:07.566Z,29.36
2022-08-28T09:32:43.919Z,29.36
2022-08-28T09:35:19.334Z,29.43
2022-08-28T09:37:49.357Z,29.46
2022-08-28T09:40:27.614Z,29.49
2022-08-28T09:43:27.993Z,29.49
2022-08-28T09:46:03.377Z,29.55
2022-08-28T09:48:39.369Z,29.61
2022-08-28T09:53:28.800Z,29.64
2022-08-28T09:56:11.444Z,29.64
2022-08-28T09:58:48.036Z,29.83
2022-08-28T10:01:45.140Z,29.94
2022-08-28T10:04:33.054Z,30.01
2022-08-28T10:07:08.352Z,29.97
2022-08-28T10:09:50.255Z,29.71
2022-08-28T10:12:38.549Z,29.29
2022-08-28T10:15:18.665Z,29.03
2022-08-28T10:18:06.488Z,28.82
2022-08-28T10:20:50.741Z,28.65
2022-08-28T10:23:33.375Z,28.79
2022-08-28T10:26:21.696Z,29.01
2022-08-28T10:29:05.509Z,29.06
2022-08-28T10:31:47.641Z,28.88
2022-08-28T10:34:37.561Z,28.85
2022-08-28T10:37:16.409Z,28.99
2022-08-28T10:39:56.121Z,28.97
2022-08-28T10:42:36.181Z,29.00
2022-08-28T10:45:12.399Z,29.10
2022-08-28T10:47:46.670Z,28.99
2022-08-28T10:50:24.227Z,29.11
2022-08-28T10:53:02.356Z,29.22
2022-08-28T10:55:39.438Z,29.38
2022-08-28T10:58:23.772Z,29.52
2022-08-28T11:00:58.895Z,29.35
2022-08-28T11:03:34.772Z,29.30
2022-08-28T11:06:11.864Z,29.49
2022-08-28T11:08:42.516Z,29.42
2022-08-28T11:11:17.514Z,29.27
2022-08-28T11:13:59.957Z,29.50
2022-08-28T11:16:43.308Z,29.86
2022-08-28T11:20:03.350Z,30.18
2022-08-28T11:22:39.850Z,30.26
2022-08-28T11:25:26.298Z,30.15
2022-08-28T11:28:19.234Z,30.37
2022-08-28T11:31:19.020Z,30.67
2022-08-28T11:33:59.874Z,30.87
2022-08-28T11:37:04.317Z,30.82
2022-08-28T11:39:34.347Z,30.82
2022-08-28T11:42:37.794Z,30.72
2022-08-28T11:45:08.689Z,30.54
2022-08-28T11:47:53.352Z,30.64
2022-08-28T11:50:31.170Z,30.73
2022-08-28T11:53:49.458Z,30.73
2022-08-28T11:56:42.716Z,30.75
2022-08-28T11:59:55.914Z,30.86
2022-08-28T12:02:55.293Z,30.91
2022-08-28T12:05:49.073Z,31.02
2022-08-28T12:09:15.468Z,31.07
2022-08-28T12:12:01.534Z,30.77
2022-08-28T12:15:07.939Z,30.60
2022-08-28T12:17:59.093Z,30.47
2022-08-28T12:20:59.452Z,30.23
2022-08-28T12:23:42.927Z,30.18
2022-08-28T12:26:25.294Z,30.12
2022-08-28T12:28:59.411Z,30.33
2022-08-28T12:32:15.220Z,30.37
2022-08-28T12:34:54.556Z,30.41
2022-08-28T12:37:51.035Z,30.37
2022-08-28T12:40:26.769Z,30.19
2022-08-28T12:43:00.558Z,30.19
2022-08-28T12:45:41.426Z,30.31
2022-08-28T12:48:20.284Z,30.55
2022-08-28T12:53:27.134Z,30.48
2022-08-28T12:55:58.750Z,30.16
2022-08-28T12:58:34.991Z,29.94
2022-08-28T13:01:10.159Z,29.81
2022-08-28T13:03:47.869Z,29.79
2022-08-28T13:06:28.899Z,29.69
2022-08-28T13:09:05.597Z,29.62
2022-08-28T13:11:38.878Z,29.64
2022-08-28T13:14:09.674Z,29.46
2022-08-28T13:16:43.177Z,29.34
2022-08-28T13:19:38.538Z,29.24
2022-08-28T13:22:18.411Z,29.30
2022-08-28T13:24:50.700Z,29.38
2022-08-28T13:27:27.130Z,29.48
2022-08-28T13:30:17.040Z,29.42
2022-08-28T13:33:00.648Z,29.37
2022-08-28T13:35:41.570Z,29.42
2022-08-28T13:38:14.556Z,29.42
2022-08-28T13:40:59.756Z,29.40
2022-08-28T13:43:45.722Z,29.39
2022-08-28T13:46:15.769Z,29.30
2022-08-28T13:48:45.611Z,29.04
2022-08-28T13:51:20.933Z,28.86
2022-08-28T13:53:51.299Z,28.75
2022-08-28T13:56:27.581Z,28.67
2022-08-28T13:58:57.803Z,28.80
2022-08-28T14:01:48.967Z,28.69
2022-08-28T14:04:17.898Z,28.48
2022-08-28T14:06:47.747Z,28.53
2022-08-28T14:09:17.962Z,28.49
2022-08-28T14:11:51.211Z,28.44
2022-08-28T14:14:21.213Z,28.48
2022-08-28T14:16:53.677Z,28.36
2022-08-28T14:19:24.619Z,28.29
2022-08-28T14:21:54.571Z,28.25
2022-08-28T14:24:24.723Z,28.20
2022-08-28T14:26:56.714Z,28.22
2022-08-28T14:29:26.294Z,28.17
2022-08-28T14:31:56.213Z,28.15
2022-08-28T14:34:26.532Z,28.14
2022-08-28T14:36:56.619Z,28.19
2022-08-28T14:39:28.370Z,28.11
2022-08-28T14:41:59.771Z,28.06
2022-08-28T14:44:29.669Z,28.01
2022-08-28T14:46:59.452Z,27.99
2022-08-28T14:49:30.118Z,27.98
2022-08-28T14:52:00.034Z,27.94
2022-08-28T14:54:30.134Z,27.87
2022-08-28T14:57:01.513Z,27.83
2022-08-28T14:59:34.319Z,27.67
2022-08-28T15:02:04.469Z,27.55
2022-08-28T15:04:38.281Z,27.33
2022-08-28T15:07:13.298Z,27.10
2022-08-28T15:09:44.970Z,27.01
2022-08-28T15:12:16.635Z,27.01
2022-08-28T15:14:55.231Z,26.86
2022-08-28T15:17:34.460Z,26.67
2022-08-28T15:20:05.401Z,26.62
2022-08-28T15:22:35.393Z,26.42
2022-08-28T15:25:06.267Z,26.23
2022-08-28T15:27:37.829Z,26.11
2022-08-28T15:30:09.158Z,26.06
2022-08-28T15:32:39.941Z,26.09
2022-08-28T15:35:11.356Z,26.07
2022-08-28T15:37:41.290Z,26.02
2022-08-28T15:40:30.451Z,25.99
2022-08-28T15:43:01.898Z,25.98
2022-08-28T15:45:31.961Z,25.96
2022-08-28T15:48:01.867Z,25.93
2022-08-28T15:53:27.034Z,25.82
2022-08-28T15:55:57.056Z,25.72
2022-08-28T15:58:27.292Z,25.58
2022-08-28T16:00:57.367Z,25.42
2022-08-28T16:03:28.718Z,25.30
2022-08-28T16:05:59.013Z,25.15
2022-08-28T16:08:31.570Z,24.99
2022-08-28T16:11:01.592Z,24.87
2022-08-28T16:13:31.454Z,24.77
2022-08-28T16:16:01.882Z,24.72
2022-08-28T16:18:31.762Z,24.65
2022-08-28T16:21:04.803Z,24.59
2022-08-28T16:23:37.671Z,24.53
2022-08-28T16:26:08.876Z,24.44
2022-08-28T16:28:39.926Z,24.27
2022-08-28T16:31:19.036Z,24.15
2022-08-28T16:33:49.983Z,24.07
2022-08-28T16:36:21.693Z,23.92
2022-08-28T16:39:01.730Z,23.73
2022-08-28T16:41:34.610Z,23.58
2022-08-28T16:44:04.933Z,23.42
2022-08-28T16:46:34.859Z,23.29
2022-08-28T16:49:05.018Z,23.13
2022-08-28T16:51:35.170Z,22.97
2022-08-28T16:54:07.273Z,22.75
2022-08-28T16:56:37.507Z,22.58
2022-08-28T16:59:10.331Z,22.47
2022-08-28T17:01:42.702Z,22.39
2022-08-28T17:04:13.902Z,22.37
2022-08-28T17:06:46.634Z,22.29
2022-08-28T17:09:20.990Z,22.18
2022-08-28T17:11:52.239Z,22.07
2022-08-28T17:14:22.797Z,21.97
2022-08-28T17:16:53.495Z,21.86
2022-08-28T17:19:24.669Z,21.73
2022-08-28T17:22:11.698Z,21.65
2022-08-28T17:24:43.197Z,21.56
2022-08-28T17:27:14.872Z,21.43
2022-08-28T17:29:53.099Z,21.30
2022-08-28T17:32:23.434Z,21.18
2022-08-28T17:34:53.558Z,21.04
2022-08-28T17:37:24.230Z,20.89
2022-08-28T17:39:55.640Z,20.77
2022-08-28T17:42:25.770Z,20.64
2022-08-28T17:44:55.671Z,20.53
2022-08-28T17:47:27.362Z,20.44
2022-08-28T17:50:01.853Z,20.33
2022-08-28T17:52:32.113Z,20.21
2022-08-28T17:55:04.190Z,20.13
2022-08-28T17:57:33.732Z,20.08
2022-08-28T18:00:05.172Z,20.03
2022-08-28T18:02:35.190Z,19.97
2022-08-28T18:05:05.387Z,19.87
2022-08-28T18:07:35.490Z,19.79
2022-08-28T18:10:09.910Z,19.65
2022-08-28T18:12:39.998Z,19.60
2022-08-28T18:15:13.934Z,19.50
2022-08-28T18:17:48.614Z,19.44
2022-08-28T18:20:19.359Z,19.38
2022-08-28T18:22:50.024Z,19.33
2022-08-28T18:25:38.921Z,19.27
2022-08-28T18:28:09.592Z,19.22
2022-08-28T18:30:45.285Z,19.17
2022-08-28T18:33:17.433Z,19.07
2022-08-28T18:35:49.417Z,18.98
2022-08-28T18:38:22.764Z,18.92
2022-08-28T18:40:54.402Z,18.88
2022-08-28T18:43:24.646Z,18.81
2022-08-28T18:45:54.932Z,18.75
2022-08-28T18:48:25.047Z,18.66
2022-08-28T18:53:28.553Z,18.45
2022-08-28T18:55:59.082Z,18.37
2022-08-28T18:58:33.016Z,18.23
2022-08-28T19:01:03.634Z,18.21
2022-08-28T19:03:34.054Z,18.21
2022-08-28T19:06:04.131Z,18.16
2022-08-28T19:08:38.070Z,18.12
2022-08-28T19:11:10.781Z,18.11
2022-08-28T19:13:41.410Z,18.10
2022-08-28T19:16:12.957Z,18.03
2022-08-28T19:18:42.955Z,18.02
2022-08-28T19:21:16.641Z,18.03
2022-08-28T19:23:55.463Z,18.01
2022-08-28T19:26:26.380Z,17.97
2022-08-28T19:28:57.228Z,17.87
2022-08-28T19:31:28.820Z,17.85
2022-08-28T19:34:00.005Z,17.80
2022-08-28T19:36:31.841Z,17.75
2022-08-28T19:39:03.216Z,17.66
2022-08-28T19:41:33.371Z,17.68
2022-08-28T19:44:03.554Z,17.67
2022-08-28T19:46:34.586Z,17.62
2022-08-28T19:49:05.298Z,17.59
2022-08-28T19:51:37.351Z,17.55
2022-08-28T19:54:11.527Z,17.57
2022-08-28T19:56:42.460Z,17.54
2022-08-28T19:59:12.672Z,17.52
2022-08-28T20:01:46.724Z,17.47
2022-08-28T20:04:18.353Z,17.40
2022-08-28T20:06:48.758Z,17.41
2022-08-28T20:09:20.689Z,17.36
2022-08-28T20:11:50.813Z,17.34
2022-08-28T20:14:22.132Z,17.32
2022-08-28T20:16:55.510Z,17.28
2022-08-28T20:19:25.794Z,17.25
2022-08-28T20:21:56.113Z,17.21
2022-08-28T20:24:30.013Z,17.19
2022-08-28T20:26:59.857Z,17.18
2022-08-28T20:29:29.819Z,17.14
2022-08-28T20:32:00.054Z,17.16
2022-08-28T20:34:30.354Z,17.13
2022-08-28T20:37:00.313Z,17.11
2022-08-28T20:39:31.711Z,17.08
2022-08-28T20:42:01.769Z,17.01
2022-08-28T20:44:31.993Z,16.97
2022-08-28T20:47:01.873Z,16.96
2022-08-28T20:49:31.834Z,16.89
2022-08-28T20:52:02.632Z,16.80
2022-08-28T20:54:37.708Z,16.74
2022-08-28T20:57:13.811Z,16.65
2022-08-28T20:59:45.918Z,16.60
2022-08-28T21:02:19.854Z,16.64
2022-08-28T21:04:50.825Z,16.65
2022-08-28T21:07:23.789Z,16.64
2022-08-28T21:10:07.057Z,16.60
2022-08-28T21:12:38.913Z,16.54
2022-08-28T21:15:11.438Z,16.49
2022-08-28T21:17:41.614Z,16.45
2022-08-28T21:20:16.480Z,16.47
2022-08-28T21:22:47.336Z,16.46
2022-08-28T21:25:20.758Z,16.41
2022-08-28T21:27:50.833Z,16.40
2022-08-28T21:30:23.474Z,16.37
2022-08-28T21:32:58.503Z,16.39
2022-08-28T21:35:28.553Z,16.41
2022-08-28T21:37:58.432Z,16.47
2022-08-28T21:40:30.001Z,16.39
2022-08-28T21:42:59.939Z,16.35
2022-08-28T21:45:29.913Z,16.34
2022-08-28T21:47:59.895Z,16.30
2022-08-28T21:53:26.869Z,16.28
2022-08-28T21:55:57.816Z,16.27
2022-08-28T21:58:27.713Z,16.22
2022-08-28T22:00:58.947Z,16.22
2022-08-28T22:03:30.412Z,16.11
2022-08-28T22:06:00.742Z,16.11
2022-08-28T22:08:32.221Z,16.12
2022-08-28T22:11:02.073Z,16.12
2022-08-28T22:13:32.058Z,16.10
2022-08-28T22:16:01.830Z,16.01
2022-08-28T22:18:34.146Z,15.91
2022-08-28T22:21:20.989Z,15.89
2022-08-28T22:23:52.877Z,15.87
2022-08-28T22:26:23.949Z,15.89
2022-08-28T22:28:53.789Z,15.94
2022-08-28T22:31:23.779Z,15.95
2022-08-28T22:33:54.421Z,15.91
2022-08-28T22:36:24.952Z,15.90
2022-08-28T22:39:01.032Z,15.93
2022-08-28T22:41:31.752Z,15.87
2022-08-28T22:44:01.763Z,15.83
2022-08-28T22:46:31.694Z,15.84
2022-08-28T22:49:01.581Z,15.80
2022-08-28T22:51:31.617Z,15.79
2022-08-28T22:54:02.958Z,15.77
2022-08-28T22:56:32.921Z,15.77
2022-08-28T22:59:02.753Z,15.76
2022-08-28T23:01:32.860Z,15.76
2022-08-28T23:04:03.227Z,15.74
2022-08-28T23:06:34.195Z,15.73
2022-08-28T23:09:05.563Z,15.72
2022-08-28T23:11:35.479Z,15.71
2022-08-28T23:14:05.956Z,15.69
2022-08-28T23:16:36.453Z,15.64
2022-08-28T23:19:09.634Z,15.59
2022-08-28T23:21:44.651Z,15.58
2022-08-28T23:24:17.069Z,15.53
2022-08-28T23:26:48.518Z,15.53
2022-08-28T23:29:18.452Z,15.51
2022-08-28T23:31:48.544Z,15.51
2022-08-28T23:34:18.451Z,15.48
2022-08-28T23:36:48.408Z,15.51
2022-08-28T23:39:20.129Z,15.39
2022-08-28T23:41:53.073Z,15.38
2022-08-28T23:44:23.529Z,15.31
2022-08-28T23:46:53.613Z,15.29
2022-08-28T23:49:26.922Z,15.29
2022-08-28T23:51:57.153Z,15.33
2022-08-28T23:54:28.617Z,15.38
2022-08-28T23:56:58.457Z,15.28
2022-08-28T23:59:29.481Z,15.24
